Terminal Aerodrome Forecast
Issued by NWS

Home | Current Version | Previous Version | Graphics & Text | Print | Product List | Glossary On
Versions: 1 2 3 4 5 6 7 8 9 10 11 12 13 14 15
000
FTUS43 KOAX 250525
TAFCDR
TAF
KCDR 250525Z 2506/2606 29007KT P6SM BKN100
     FM250800 36007KT P6SM VCSH SCT025 BKN050
     FM251600 34014G21KT P6SM SCT150
     FM260100 VRB05KT P6SM SKC=

USA.gov is the U.S. government's official web portal to all federal, state and local government web resources and services.